sensor_id;sensor_type;location;lat;lon;timestamp;pressure;altitude;pressure_sealevel;temperature;humidity
10668;BME280;5382;42.136;24.796;2023-02-21T00:00:04;100192.88;;;10.47;54.49
10668;BME280;5382;42.136;24.796;2023-02-21T00:02:49;100195.75;;;10.57;52.87
10668;BME280;5382;42.136;24.796;2023-02-21T00:05:33;100194.50;;;10.62;52.35
10668;BME280;5382;42.136;24.796;2023-02-21T00:08:18;100162.00;;;10.60;51.54
10668;BME280;5382;42.136;24.796;2023-02-21T00:11:02;100204.69;;;10.81;50.50
10668;BME280;5382;42.136;24.796;2023-02-21T00:13:47;100195.28;;;10.90;49.77
10668;BME280;5382;42.136;24.796;2023-02-21T00:16:32;100195.81;;;10.95;49.11
10668;BME280;5382;42.136;24.796;2023-02-21T00:19:15;100194.75;;;10.98;49.22
10668;BME280;5382;42.136;24.796;2023-02-21T00:21:59;100196.13;;;11.03;48.94
10668;BME280;5382;42.136;24.796;2023-02-21T00:24:45;100188.09;;;11.05;48.85
10668;BME280;5382;42.136;24.796;2023-02-21T00:27:30;100180.56;;;10.99;48.98
10668;BME280;5382;42.136;24.796;2023-02-21T00:30:14;100197.19;;;11.01;48.74
10668;BME280;5382;42.136;24.796;2023-02-21T00:32:59;100184.03;;;10.99;48.34
10668;BME280;5382;42.136;24.796;2023-02-21T00:35:43;100168.16;;;10.99;48.43
10668;BME280;5382;42.136;24.796;2023-02-21T00:38:27;100167.31;;;10.99;48.13
10668;BME280;5382;42.136;24.796;2023-02-21T00:41:13;100164.66;;;10.99;48.25
10668;BME280;5382;42.136;24.796;2023-02-21T00:43:57;100162.31;;;10.94;48.65
10668;BME280;5382;42.136;24.796;2023-02-21T00:46:41;100145.91;;;10.89;48.63
10668;BME280;5382;42.136;24.796;2023-02-21T00:49:25;100164.97;;;10.94;48.27
10668;BME280;5382;42.136;24.796;2023-02-21T00:52:09;100159.69;;;10.94;48.52
10668;BME280;5382;42.136;24.796;2023-02-21T00:54:53;100148.16;;;10.95;48.49
10668;BME280;5382;42.136;24.796;2023-02-21T00:57:39;100157.38;;;11.02;47.94
10668;BME280;5382;42.136;24.796;2023-02-21T01:00:24;100150.38;;;11.01;48.02
10668;BME280;5382;42.136;24.796;2023-02-21T01:03:09;100141.97;;;11.07;47.75
10668;BME280;5382;42.136;24.796;2023-02-21T01:05:54;100139.16;;;11.10;47.07
10668;BME280;5382;42.136;24.796;2023-02-21T01:08:40;100136.16;;;11.15;46.98
10668;BME280;5382;42.136;24.796;2023-02-21T01:11:24;100135.94;;;11.18;46.85
10668;BME280;5382;42.136;24.796;2023-02-21T01:14:10;100080.59;;;10.89;46.42
10668;BME280;5382;42.136;24.796;2023-02-21T01:16:54;100139.53;;;11.30;45.98
10668;BME280;5382;42.136;24.796;2023-02-21T01:19:39;100119.16;;;11.30;45.93
10668;BME280;5382;42.136;24.796;2023-02-21T01:22:23;100103.91;;;11.34;45.42
10668;BME280;5382;42.136;24.796;2023-02-21T01:25:08;100090.97;;;11.42;45.45
10668;BME280;5382;42.136;24.796;2023-02-21T01:27:53;100086.69;;;11.52;44.99
10668;BME280;5382;42.136;24.796;2023-02-21T01:30:39;100069.44;;;11.47;44.67
10668;BME280;5382;42.136;24.796;2023-02-21T01:33:23;100082.63;;;11.60;44.50
10668;BME280;5382;42.136;24.796;2023-02-21T01:36:08;100086.06;;;11.73;44.24
10668;BME280;5382;42.136;24.796;2023-02-21T01:38:52;100083.44;;;11.73;43.82
10668;BME280;5382;42.136;24.796;2023-02-21T01:41:36;100070.50;;;11.68;44.67
10668;BME280;5382;42.136;24.796;2023-02-21T01:44:34;100072.41;;;11.66;44.59
10668;BME280;5382;42.136;24.796;2023-02-21T01:47:21;100073.56;;;11.75;43.70
10668;BME280;5382;42.136;24.796;2023-02-21T01:50:11;100079.19;;;11.70;43.98
10668;BME280;5382;42.136;24.796;2023-02-21T01:52:55;100075.28;;;11.63;44.49
10668;BME280;5382;42.136;24.796;2023-02-21T01:55:41;100072.47;;;11.53;44.29
10668;BME280;5382;42.136;24.796;2023-02-21T01:58:28;100073.47;;;11.64;44.63
10668;BME280;5382;42.136;24.796;2023-02-21T02:01:22;100067.91;;;11.55;44.90
10668;BME280;5382;42.136;24.796;2023-02-21T02:04:09;100071.66;;;11.40;45.34
10668;BME280;5382;42.136;24.796;2023-02-21T02:06:54;100064.53;;;11.17;45.78
10668;BME280;5382;42.136;24.796;2023-02-21T02:09:39;100064.13;;;11.10;46.86
10668;BME280;5382;42.136;24.796;2023-02-21T02:12:38;100070.63;;;10.93;47.86
10668;BME280;5382;42.136;24.796;2023-02-21T02:15:22;100062.16;;;10.88;48.33
10668;BME280;5382;42.136;24.796;2023-02-21T02:18:08;100056.78;;;10.77;48.84
10668;BME280;5382;42.136;24.796;2023-02-21T02:23:48;100043.03;;;10.72;49.69
10668;BME280;5382;42.136;24.796;2023-02-21T02:29:43;100043.44;;;10.65;50.16
10668;BME280;5382;42.136;24.796;2023-02-21T02:32:38;100048.66;;;10.54;50.77
10668;BME280;5382;42.136;24.796;2023-02-21T02:35:12;100009.59;;;10.32;50.89
10668;BME280;5382;42.136;24.796;2023-02-21T02:37:46;100044.63;;;10.48;50.99
10668;BME280;5382;42.136;24.796;2023-02-21T02:40:22;100032.69;;;10.43;51.31
10668;BME280;5382;42.136;24.796;2023-02-21T02:43:02;100038.16;;;10.40;51.53
10668;BME280;5382;42.136;24.796;2023-02-21T02:45:34;100041.78;;;10.39;51.54
10668;BME280;5382;42.136;24.796;2023-02-21T02:48:06;100035.31;;;10.43;51.54
10668;BME280;5382;42.136;24.796;2023-02-21T02:50:39;100039.13;;;10.39;51.58
10668;BME280;5382;42.136;24.796;2023-02-21T02:53:07;100027.59;;;10.40;51.50
10668;BME280;5382;42.136;24.796;2023-02-21T02:55:39;100007.44;;;10.24;51.25
10668;BME280;5382;42.136;24.796;2023-02-21T02:58:09;100019.34;;;10.44;51.36
10668;BME280;5382;42.136;24.796;2023-02-21T03:00:39;100017.13;;;10.38;51.01
10668;BME280;5382;42.136;24.796;2023-02-21T03:03:28;100021.66;;;10.36;50.90
10668;BME280;5382;42.136;24.796;2023-02-21T03:06:12;100027.03;;;10.35;51.01
10668;BME280;5382;42.136;24.796;2023-02-21T03:08:51;100023.25;;;10.39;50.77
10668;BME280;5382;42.136;24.796;2023-02-21T03:11:21;100017.44;;;10.34;51.11
10668;BME280;5382;42.136;24.796;2023-02-21T03:13:53;100004.53;;;10.29;51.08
10668;BME280;5382;42.136;24.796;2023-02-21T03:16:25;100018.94;;;10.38;50.58
10668;BME280;5382;42.136;24.796;2023-02-21T03:18:55;100021.22;;;10.42;50.48
10668;BME280;5382;42.136;24.796;2023-02-21T03:21:28;100013.41;;;10.41;50.58
10668;BME280;5382;42.136;24.796;2023-02-21T03:23:57;100017.66;;;10.43;50.53
10668;BME280;5382;42.136;24.796;2023-02-21T03:26:26;100015.75;;;10.45;50.27
10668;BME280;5382;42.136;24.796;2023-02-21T03:28:55;100015.84;;;10.44;49.82
10668;BME280;5382;42.136;24.796;2023-02-21T03:31:26;100032.25;;;10.49;50.21
10668;BME280;5382;42.136;24.796;2023-02-21T03:33:55;100018.06;;;10.50;49.65
10668;BME280;5382;42.136;24.796;2023-02-21T03:36:22;100020.91;;;10.60;49.58
10668;BME280;5382;42.136;24.796;2023-02-21T03:38:50;99984.63;;;10.36;49.30
10668;BME280;5382;42.136;24.796;2023-02-21T03:41:17;100034.34;;;10.69;49.18
10668;BME280;5382;42.136;24.796;2023-02-21T03:43:44;100038.97;;;10.79;49.05
10668;BME280;5382;42.136;24.796;2023-02-21T03:46:11;100038.03;;;10.80;49.04
10668;BME280;5382;42.136;24.796;2023-02-21T03:48:38;100032.31;;;10.86;48.77
10668;BME280;5382;42.136;24.796;2023-02-21T03:51:05;100038.97;;;10.91;48.69
10668;BME280;5382;42.136;24.796;2023-02-21T03:53:32;100034.09;;;10.98;48.43
10668;BME280;5382;42.136;24.796;2023-02-21T03:56:00;100031.84;;;11.05;48.11
10668;BME280;5382;42.136;24.796;2023-02-21T03:58:27;100036.06;;;11.07;48.16
10668;BME280;5382;42.136;24.796;2023-02-21T04:00:53;100039.97;;;11.14;48.17
10668;BME280;5382;42.136;24.796;2023-02-21T04:03:21;100036.81;;;11.09;48.21
10668;BME280;5382;42.136;24.796;2023-02-21T04:05:48;100040.75;;;11.04;48.28
10668;BME280;5382;42.136;24.796;2023-02-21T04:08:15;100029.09;;;11.06;48.35
10668;BME280;5382;42.136;24.796;2023-02-21T04:10:42;100016.34;;;11.11;48.18
10668;BME280;5382;42.136;24.796;2023-02-21T04:13:10;100020.50;;;11.16;47.77
10668;BME280;5382;42.136;24.796;2023-02-21T04:15:37;100033.38;;;11.20;48.10
10668;BME280;5382;42.136;24.796;2023-02-21T04:18:04;100027.13;;;11.21;48.20
10668;BME280;5382;42.136;24.796;2023-02-21T04:20:30;100027.75;;;11.25;48.01
10668;BME280;5382;42.136;24.796;2023-02-21T04:22:57;100010.19;;;11.24;48.00
10668;BME280;5382;42.136;24.796;2023-02-21T04:25:24;100017.78;;;11.28;47.81
10668;BME280;5382;42.136;24.796;2023-02-21T04:27:51;100019.81;;;11.25;47.94
10668;BME280;5382;42.136;24.796;2023-02-21T04:30:19;100018.72;;;11.27;48.19
10668;BME280;5382;42.136;24.796;2023-02-21T04:32:46;100018.50;;;11.30;48.21
10668;BME280;5382;42.136;24.796;2023-02-21T04:35:13;100023.59;;;11.33;48.14
10668;BME280;5382;42.136;24.796;2023-02-21T04:37:39;100024.94;;;11.39;48.00
10668;BME280;5382;42.136;24.796;2023-02-21T04:40:08;100034.91;;;11.35;47.52
10668;BME280;5382;42.136;24.796;2023-02-21T04:42:35;100027.69;;;11.38;47.59
10668;BME280;5382;42.136;24.796;2023-02-21T04:45:01;100049.53;;;11.41;47.37
10668;BME280;5382;42.136;24.796;2023-02-21T04:47:30;100036.50;;;11.38;47.26
10668;BME280;5382;42.136;24.796;2023-02-21T04:49:56;100029.28;;;11.40;47.38
10668;BME280;5382;42.136;24.796;2023-02-21T04:52:23;100037.34;;;11.39;47.26
10668;BME280;5382;42.136;24.796;2023-02-21T04:54:50;100041.41;;;11.31;47.59
10668;BME280;5382;42.136;24.796;2023-02-21T04:57:17;100037.50;;;11.24;47.61
10668;BME280;5382;42.136;24.796;2023-02-21T04:59:43;100055.16;;;11.37;47.51
10668;BME280;5382;42.136;24.796;2023-02-21T05:02:10;100049.88;;;11.37;47.02
10668;BME280;5382;42.136;24.796;2023-02-21T05:04:39;100043.72;;;11.36;46.58
10668;BME280;5382;42.136;24.796;2023-02-21T05:07:07;100042.84;;;11.35;46.47
10668;BME280;5382;42.136;24.796;2023-02-21T05:09:34;100043.72;;;11.36;47.04
10668;BME280;5382;42.136;24.796;2023-02-21T05:12:00;100053.44;;;11.35;46.38
10668;BME280;5382;42.136;24.796;2023-02-21T05:14:27;100053.59;;;11.34;46.29
10668;BME280;5382;42.136;24.796;2023-02-21T05:16:54;100047.22;;;11.37;46.29
10668;BME280;5382;42.136;24.796;2023-02-21T05:19:22;100048.38;;;11.32;45.85
10668;BME280;5382;42.136;24.796;2023-02-21T05:21:55;100052.28;;;11.16;46.23
10668;BME280;5382;42.136;24.796;2023-02-21T05:24:22;100054.91;;;11.16;46.32
10668;BME280;5382;42.136;24.796;2023-02-21T05:26:50;100052.47;;;11.12;46.39
10668;BME280;5382;42.136;24.796;2023-02-21T05:29:17;100043.69;;;11.12;46.54
10668;BME280;5382;42.136;24.796;2023-02-21T05:31:44;100057.16;;;11.09;46.95
10668;BME280;5382;42.136;24.796;2023-02-21T05:34:11;100056.53;;;11.05;47.23
10668;BME280;5382;42.136;24.796;2023-02-21T05:36:38;100063.06;;;11.12;47.31
10668;BME280;5382;42.136;24.796;2023-02-21T05:39:07;100059.75;;;11.22;47.69
10668;BME280;5382;42.136;24.796;2023-02-21T05:41:34;100056.66;;;11.28;47.28
10668;BME280;5382;42.136;24.796;2023-02-21T05:44:02;100065.31;;;11.43;47.14
10668;BME280;5382;42.136;24.796;2023-02-21T05:46:31;100051.13;;;11.44;47.00
10668;BME280;5382;42.136;24.796;2023-02-21T05:49:00;100045.63;;;11.58;46.80
10668;BME280;5382;42.136;24.796;2023-02-21T05:51:30;100066.78;;;11.71;46.61
10668;BME280;5382;42.136;24.796;2023-02-21T05:53:59;100068.25;;;11.75;46.73
10668;BME280;5382;42.136;24.796;2023-02-21T05:56:27;100068.75;;;11.80;46.93
10668;BME280;5382;42.136;24.796;2023-02-21T05:58:54;100079.13;;;11.83;46.55
10668;BME280;5382;42.136;24.796;2023-02-21T06:01:20;100064.81;;;11.86;46.65
10668;BME280;5382;42.136;24.796;2023-02-21T06:03:47;100069.06;;;11.88;46.78
10668;BME280;5382;42.136;24.796;2023-02-21T06:06:15;100074.03;;;11.93;46.87
10668;BME280;5382;42.136;24.796;2023-02-21T06:08:43;100069.34;;;11.96;46.84
10668;BME280;5382;42.136;24.796;2023-02-21T06:11:10;100068.84;;;12.03;46.78
10668;BME280;5382;42.136;24.796;2023-02-21T06:13:38;100067.94;;;12.15;46.04
10668;BME280;5382;42.136;24.796;2023-02-21T06:16:05;100080.88;;;12.19;46.28
10668;BME280;5382;42.136;24.796;2023-02-21T06:18:32;100079.53;;;12.25;46.21
10668;BME280;5382;42.136;24.796;2023-02-21T06:20:59;100078.22;;;12.31;45.61
10668;BME280;5382;42.136;24.796;2023-02-21T06:23:25;100082.34;;;12.35;45.97
10668;BME280;5382;42.136;24.796;2023-02-21T06:25:52;100056.38;;;12.16;45.99
10668;BME280;5382;42.136;24.796;2023-02-21T06:28:19;100082.25;;;12.48;45.84
10668;BME280;5382;42.136;24.796;2023-02-21T06:30:47;100078.53;;;12.50;45.34
10668;BME280;5382;42.136;24.796;2023-02-21T06:33:14;100070.66;;;12.37;45.32
10668;BME280;5382;42.136;24.796;2023-02-21T06:35:40;100083.09;;;12.37;45.93
10668;BME280;5382;42.136;24.796;2023-02-21T06:38:07;100075.47;;;12.43;45.59
10668;BME280;5382;42.136;24.796;2023-02-21T06:40:34;100078.13;;;12.43;45.52
10668;BME280;5382;42.136;24.796;2023-02-21T06:43:01;100067.66;;;12.53;45.65
10668;BME280;5382;42.136;24.796;2023-02-21T06:45:28;100067.56;;;12.66;45.37
10668;BME280;5382;42.136;24.796;2023-02-21T06:47:56;100058.50;;;12.80;44.58
10668;BME280;5382;42.136;24.796;2023-02-21T06:50:23;100062.84;;;12.92;44.45
10668;BME280;5382;42.136;24.796;2023-02-21T06:52:50;100064.53;;;13.04;45.13
10668;BME280;5382;42.136;24.796;2023-02-21T06:55:19;100066.69;;;13.10;44.73
10668;BME280;5382;42.136;24.796;2023-02-21T06:57:47;100052.69;;;13.20;45.07
10668;BME280;5382;42.136;24.796;2023-02-21T07:00:14;100042.44;;;13.15;45.10
10668;BME280;5382;42.136;24.796;2023-02-21T07:02:42;100061.41;;;13.33;45.11
10668;BME280;5382;42.136;24.796;2023-02-21T07:05:10;100053.53;;;13.43;44.73
10668;BME280;5382;42.136;24.796;2023-02-21T07:07:37;100062.09;;;13.46;44.77
10668;BME280;5382;42.136;24.796;2023-02-21T07:10:05;100054.56;;;13.51;43.98
10668;BME280;5382;42.136;24.796;2023-02-21T07:12:31;100037.63;;;13.64;44.29
10668;BME280;5382;42.136;24.796;2023-02-21T07:14:58;100055.25;;;13.65;44.57
10668;BME280;5382;42.136;24.796;2023-02-21T07:17:25;100039.66;;;13.71;45.52
10668;BME280;5382;42.136;24.796;2023-02-21T07:19:52;100032.44;;;13.83;46.64
10668;BME280;5382;42.136;24.796;2023-02-21T07:22:21;100051.69;;;13.87;46.71
10668;BME280;5382;42.136;24.796;2023-02-21T07:24:50;100040.66;;;13.91;45.88
10668;BME280;5382;42.136;24.796;2023-02-21T07:27:18;100037.28;;;13.89;45.42
10668;BME280;5382;42.136;24.796;2023-02-21T07:29:46;100054.91;;;13.90;45.14
10668;BME280;5382;42.136;24.796;2023-02-21T07:32:13;100027.47;;;13.90;44.69
10668;BME280;5382;42.136;24.796;2023-02-21T07:34:40;100040.66;;;13.91;44.54
10668;BME280;5382;42.136;24.796;2023-02-21T07:37:06;100037.41;;;13.88;44.46
10668;BME280;5382;42.136;24.796;2023-02-21T07:39:35;100046.47;;;13.85;44.22
10668;BME280;5382;42.136;24.796;2023-02-21T07:42:02;100027.19;;;13.72;44.50
10668;BME280;5382;42.136;24.796;2023-02-21T07:44:29;100020.06;;;13.72;44.58
10668;BME280;5382;42.136;24.796;2023-02-21T07:46:56;100040.19;;;13.86;45.84
10668;BME280;5382;42.136;24.796;2023-02-21T07:49:23;100032.28;;;13.96;45.32
10668;BME280;5382;42.136;24.796;2023-02-21T07:51:49;100025.34;;;14.05;45.10
10668;BME280;5382;42.136;24.796;2023-02-21T07:54:16;100024.72;;;14.12;43.63
10668;BME280;5382;42.136;24.796;2023-02-21T07:56:46;100015.75;;;14.13;43.69
10668;BME280;5382;42.136;24.796;2023-02-21T07:59:15;99994.97;;;14.07;43.13
10668;BME280;5382;42.136;24.796;2023-02-21T08:01:41;100022.53;;;14.27;42.86
10668;BME280;5382;42.136;24.796;2023-02-21T08:04:08;100004.22;;;14.34;42.81
10668;BME280;5382;42.136;24.796;2023-02-21T08:06:35;100014.75;;;14.35;42.71
10668;BME280;5382;42.136;24.796;2023-02-21T08:09:04;100013.84;;;14.46;42.53
10668;BME280;5382;42.136;24.796;2023-02-21T08:11:31;100012.44;;;14.52;42.39
10668;BME280;5382;42.136;24.796;2023-02-21T08:13:59;100010.56;;;14.64;42.15
10668;BME280;5382;42.136;24.796;2023-02-21T08:16:26;99999.88;;;14.85;41.95
10668;BME280;5382;42.136;24.796;2023-02-21T08:18:53;99998.94;;;15.05;41.96
10668;BME280;5382;42.136;24.796;2023-02-21T08:21:20;99991.53;;;15.28;41.56
10668;BME280;5382;42.136;24.796;2023-02-21T08:23:46;99980.78;;;15.49;41.30
10668;BME280;5382;42.136;24.796;2023-02-21T08:26:13;99987.22;;;15.66;40.93
10668;BME280;5382;42.136;24.796;2023-02-21T08:28:40;99979.38;;;15.84;41.15
10668;BME280;5382;42.136;24.796;2023-02-21T08:31:08;99983.28;;;15.99;40.59
10668;BME280;5382;42.136;24.796;2023-02-21T08:33:35;99968.63;;;16.13;40.34
10668;BME280;5382;42.136;24.796;2023-02-21T08:36:02;99962.41;;;16.32;40.36
10668;BME280;5382;42.136;24.796;2023-02-21T08:38:29;99962.19;;;16.53;39.79
10668;BME280;5382;42.136;24.796;2023-02-21T08:40:56;99972.69;;;16.64;39.36
10668;BME280;5382;42.136;24.796;2023-02-21T08:43:23;99962.56;;;16.68;39.05
10668;BME280;5382;42.136;24.796;2023-02-21T08:45:50;99983.19;;;16.75;38.38
10668;BME280;5382;42.136;24.796;2023-02-21T08:48:18;99942.84;;;16.69;38.25
10668;BME280;5382;42.136;24.796;2023-02-21T08:50:45;99943.69;;;16.79;38.32
10668;BME280;5382;42.136;24.796;2023-02-21T08:53:12;99939.19;;;16.97;38.28
10668;BME280;5382;42.136;24.796;2023-02-21T08:55:39;99928.84;;;17.12;37.80
10668;BME280;5382;42.136;24.796;2023-02-21T08:58:09;99899.56;;;16.93;37.55
10668;BME280;5382;42.136;24.796;2023-02-21T09:00:36;99920.25;;;17.09;37.77
10668;BME280;5382;42.136;24.796;2023-02-21T09:03:03;99925.78;;;17.07;37.62
10668;BME280;5382;42.136;24.796;2023-02-21T09:05:31;99954.09;;;17.00;37.42
10668;BME280;5382;42.136;24.796;2023-02-21T09:07:59;99928.56;;;16.88;37.78
10668;BME280;5382;42.136;24.796;2023-02-21T09:10:27;99936.84;;;16.94;37.91
10668;BME280;5382;42.136;24.796;2023-02-21T09:12:54;99938.81;;;16.92;37.84
10668;BME280;5382;42.136;24.796;2023-02-21T09:15:21;99933.25;;;16.86;37.83
10668;BME280;5382;42.136;24.796;2023-02-21T09:17:48;99929.56;;;16.87;38.04
10668;BME280;5382;42.136;24.796;2023-02-21T09:20:17;99941.41;;;16.84;37.94
10668;BME280;5382;42.136;24.796;2023-02-21T09:22:46;99928.88;;;16.85;37.97
10668;BME280;5382;42.136;24.796;2023-02-21T09:25:14;99935.22;;;16.84;38.04
10668;BME280;5382;42.136;24.796;2023-02-21T09:27:42;99933.47;;;16.92;38.21
10668;BME280;5382;42.136;24.796;2023-02-21T09:30:11;99929.78;;;16.93;37.99
10668;BME280;5382;42.136;24.796;2023-02-21T09:32:38;99932.84;;;16.98;37.69
10668;BME280;5382;42.136;24.796;2023-02-21T09:35:07;99916.38;;;17.03;37.59
10668;BME280;5382;42.136;24.796;2023-02-21T09:37:36;99940.13;;;17.24;37.55
10668;BME280;5382;42.136;24.796;2023-02-21T09:40:08;99878.00;;;17.48;37.23
10668;BME280;5382;42.136;24.796;2023-02-21T09:42:38;99916.66;;;17.72;36.86
10668;BME280;5382;42.136;24.796;2023-02-21T09:45:12;99900.16;;;18.02;36.57
10668;BME280;5382;42.136;24.796;2023-02-21T09:47:39;99900.09;;;18.20;35.49
10668;BME280;5382;42.136;24.796;2023-02-21T09:50:12;99898.84;;;18.41;35.61
10668;BME280;5382;42.136;24.796;2023-02-21T09:52:40;99898.03;;;18.48;35.17
10668;BME280;5382;42.136;24.796;2023-02-21T09:55:13;99891.00;;;18.47;35.30
10668;BME280;5382;42.136;24.796;2023-02-21T09:57:45;99892.91;;;18.71;35.22
10668;BME280;5382;42.136;24.796;2023-02-21T10:00:17;99887.53;;;18.71;34.85
10668;BME280;5382;42.136;24.796;2023-02-21T10:02:53;99870.47;;;18.72;34.49
10668;BME280;5382;42.136;24.796;2023-02-21T10:05:32;99880.91;;;18.84;34.47
10668;BME280;5382;42.136;24.796;2023-02-21T10:08:09;99869.03;;;18.94;34.67
10668;BME280;5382;42.136;24.796;2023-02-21T10:10:43;99865.38;;;19.20;34.18
10668;BME280;5382;42.136;24.796;2023-02-21T10:13:21;99859.16;;;19.36;34.07
10668;BME280;5382;42.136;24.796;2023-02-21T10:15:55;99845.25;;;19.49;33.82
10668;BME280;5382;42.136;24.796;2023-02-21T10:18:32;99845.56;;;19.54;32.99
10668;BME280;5382;42.136;24.796;2023-02-21T10:21:02;99848.63;;;19.67;32.55
10668;BME280;5382;42.136;24.796;2023-02-21T10:23:34;99859.03;;;19.70;32.26
10668;BME280;5382;42.136;24.796;2023-02-21T10:26:06;99868.25;;;19.59;31.84
10668;BME280;5382;42.136;24.796;2023-02-21T10:28:35;99843.88;;;19.61;32.22
10668;BME280;5382;42.136;24.796;2023-02-21T10:31:07;99854.50;;;19.71;31.76
10668;BME280;5382;42.136;24.796;2023-02-21T10:33:36;99854.97;;;19.74;31.98
10668;BME280;5382;42.136;24.796;2023-02-21T10:36:10;99824.59;;;19.82;31.95
10668;BME280;5382;42.136;24.796;2023-02-21T10:38:38;99830.00;;;20.21;32.09
10668;BME280;5382;42.136;24.796;2023-02-21T10:41:09;99820.22;;;20.29;31.84
10668;BME280;5382;42.136;24.796;2023-02-21T10:43:39;99807.72;;;20.44;31.70
10668;BME280;5382;42.136;24.796;2023-02-21T10:46:14;99801.81;;;20.80;31.44
10668;BME280;5382;42.136;24.796;2023-02-21T10:48:46;99790.00;;;20.89;30.98
10668;BME280;5382;42.136;24.796;2023-02-21T10:51:14;99777.06;;;20.61;30.80
10668;BME280;5382;42.136;24.796;2023-02-21T10:53:44;99799.19;;;20.72;30.70
10668;BME280;5382;42.136;24.796;2023-02-21T10:56:28;99790.94;;;20.96;30.59
10668;BME280;5382;42.136;24.796;2023-02-21T10:58:57;99782.47;;;21.45;29.96
10668;BME280;5382;42.136;24.796;2023-02-21T11:01:34;99798.44;;;21.91;29.31
10668;BME280;5382;42.136;24.796;2023-02-21T11:04:04;99779.94;;;22.18;29.02
10668;BME280;5382;42.136;24.796;2023-02-21T11:06:35;99764.69;;;22.61;28.82
10668;BME280;5382;42.136;24.796;2023-02-21T11:09:28;99770.66;;;22.78;28.22
10668;BME280;5382;42.136;24.796;2023-02-21T11:12:01;99749.81;;;23.15;28.04
10668;BME280;5382;42.136;24.796;2023-02-21T11:14:30;99753.50;;;23.64;27.57
10668;BME280;5382;42.136;24.796;2023-02-21T11:17:12;99750.72;;;24.27;26.89
10668;BME280;5382;42.136;24.796;2023-02-21T11:19:58;99736.09;;;24.14;26.55
10668;BME280;5382;42.136;24.796;2023-02-21T11:22:36;99747.56;;;24.16;26.89
10668;BME280;5382;42.136;24.796;2023-02-21T11:25:04;99741.69;;;24.94;26.20
10668;BME280;5382;42.136;24.796;2023-02-21T11:27:34;99717.31;;;25.34;25.81
10668;BME280;5382;42.136;24.796;2023-02-21T11:30:08;99717.59;;;25.91;25.51
10668;BME280;5382;42.136;24.796;2023-02-21T11:32:39;99702.38;;;25.90;25.19
10668;BME280;5382;42.136;24.796;2023-02-21T11:35:21;99701.88;;;26.06;24.56
10668;BME280;5382;42.136;24.796;2023-02-21T11:37:51;99707.91;;;26.47;24.27
10668;BME280;5382;42.136;24.796;2023-02-21T11:40:24;99698.34;;;27.26;23.70
10668;BME280;5382;42.136;24.796;2023-02-21T11:43:09;99696.63;;;27.50;23.06
10668;BME280;5382;42.136;24.796;2023-02-21T11:45:36;99700.50;;;26.67;23.88
10668;BME280;5382;42.136;24.796;2023-02-21T11:48:11;99675.81;;;26.44;23.78
10668;BME280;5382;42.136;24.796;2023-02-21T11:50:43;99663.41;;;26.80;23.62
10668;BME280;5382;42.136;24.796;2023-02-21T11:53:19;99665.47;;;27.09;23.21
10668;BME280;5382;42.136;24.796;2023-02-21T11:56:01;99653.72;;;27.71;22.79
10668;BME280;5382;42.136;24.796;2023-02-21T11:58:38;99656.06;;;27.49;22.89
10668;BME280;5382;42.136;24.796;2023-02-21T12:01:11;99641.91;;;27.95;22.29
10668;BME280;5382;42.136;24.796;2023-02-21T12:03:54;99646.41;;;27.90;22.00
10668;BME280;5382;42.136;24.796;2023-02-21T12:06:31;99630.81;;;28.39;21.75
10668;BME280;5382;42.136;24.796;2023-02-21T12:09:06;99611.34;;;28.65;21.78
10668;BME280;5382;42.136;24.796;2023-02-21T12:11:54;99612.56;;;28.81;21.52
10668;BME280;5382;42.136;24.796;2023-02-21T12:14:44;99628.28;;;28.91;21.12
10668;BME280;5382;42.136;24.796;2023-02-21T12:17:25;99610.75;;;29.22;20.91
10668;BME280;5382;42.136;24.796;2023-02-21T12:20:15;99582.09;;;29.60;20.48
10668;BME280;5382;42.136;24.796;2023-02-21T12:23:00;99599.84;;;30.20;20.28
10668;BME280;5382;42.136;24.796;2023-02-21T12:25:38;99577.09;;;30.26;19.93
10668;BME280;5382;42.136;24.796;2023-02-21T12:28:17;99586.78;;;30.05;19.41
10668;BME280;5382;42.136;24.796;2023-02-21T12:31:10;99574.72;;;29.72;19.27
10668;BME280;5382;42.136;24.796;2023-02-21T12:33:43;99571.34;;;30.61;18.66
10668;BME280;5382;42.136;24.796;2023-02-21T12:39:24;99563.69;;;29.39;18.79
10668;BME280;5382;42.136;24.796;2023-02-21T12:45:13;99572.16;;;30.11;18.35
10668;BME280;5382;42.136;24.796;2023-02-21T12:47:50;99555.06;;;29.70;18.26
10668;BME280;5382;42.136;24.796;2023-02-21T12:50:21;99579.25;;;29.26;18.60
10668;BME280;5382;42.136;24.796;2023-02-21T12:52:55;99570.00;;;29.68;18.08
10668;BME280;5382;42.136;24.796;2023-02-21T12:55:30;99548.75;;;29.41;17.84
10668;BME280;5382;42.136;24.796;2023-02-21T12:58:02;99530.31;;;29.20;17.96
10668;BME280;5382;42.136;24.796;2023-02-21T13:00:35;99551.59;;;29.63;17.51
10668;BME280;5382;42.136;24.796;2023-02-21T13:03:21;99557.97;;;29.81;17.27
10668;BME280;5382;42.136;24.796;2023-02-21T13:05:55;99548.47;;;29.02;17.45
10668;BME280;5382;42.136;24.796;2023-02-21T13:08:26;99553.81;;;28.97;17.51
10668;BME280;5382;42.136;24.796;2023-02-21T13:10:59;99546.16;;;29.34;17.78
10668;BME280;5382;42.136;24.796;2023-02-21T13:13:32;99542.41;;;29.24;17.64
10668;BME280;5382;42.136;24.796;2023-02-21T13:16:01;99505.53;;;28.69;17.81
10668;BME280;5382;42.136;24.796;2023-02-21T13:18:34;99535.03;;;29.24;17.49
10668;BME280;5382;42.136;24.796;2023-02-21T13:21:09;99534.41;;;29.46;17.36
10668;BME280;5382;42.136;24.796;2023-02-21T13:24:00;99535.56;;;28.98;17.84
10668;BME280;5382;42.136;24.796;2023-02-21T13:26:59;99545.63;;;28.97;17.98
10668;BME280;5382;42.136;24.796;2023-02-21T13:29:31;99547.19;;;28.81;18.00
10668;BME280;5382;42.136;24.796;2023-02-21T13:32:01;99536.06;;;28.59;17.73
10668;BME280;5382;42.136;24.796;2023-02-21T13:34:35;99539.13;;;28.63;17.91
10668;BME280;5382;42.136;24.796;2023-02-21T13:37:05;99558.91;;;28.70;17.78